createdAt,value
2019-04-30T00:02:01.443Z,71.05
2019-04-30T00:04:40.385Z,70.97
2019-04-30T00:07:10.298Z,69.90
2019-04-30T00:09:42.054Z,69.87
2019-04-30T00:12:12.409Z,71.25
2019-04-30T00:14:41.943Z,70.67
2019-04-30T00:17:16.021Z,69.27
2019-04-30T00:19:42.821Z,70.85
2019-04-30T00:22:12.356Z,67.08
2019-04-30T00:24:46.758Z,68.45
2019-04-30T00:27:14.977Z,67.58
2019-04-30T00:29:45.741Z,68.93
2019-04-30T00:32:15.909Z,68.17
2019-04-30T00:34:45.709Z,68.35
2019-04-30T00:37:18.807Z,66.15
2019-04-30T00:39:51.124Z,66.12
2019-04-30T00:42:24.466Z,65.12
2019-04-30T00:44:50.093Z,63.75
2019-04-30T00:47:19.624Z,61.73
2019-04-30T00:49:52.170Z,63.70
2019-04-30T00:52:20.425Z,62.55
2019-04-30T00:54:49.968Z,63.28
2019-04-30T00:57:19.511Z,62.70
2019-04-30T00:59:49.052Z,62.30
2019-04-30T01:02:31.784Z,62.07
2019-04-30T01:05:05.333Z,62.15
2019-04-30T01:07:29.698Z,64.55
2019-04-30T01:09:59.232Z,65.15
2019-04-30T01:12:33.990Z,64.70
2019-04-30T01:15:01.748Z,62.45
2019-04-30T01:17:31.320Z,67.40
2019-04-30T01:20:01.082Z,65.90
2019-04-30T01:22:32.833Z,64.67
2019-04-30T01:25:11.777Z,64.82
2019-04-30T01:27:33.254Z,65.92
2019-04-30T01:30:03.743Z,65.87
2019-04-30T01:32:34.468Z,66.95
2019-04-30T01:35:04.686Z,69.22
2019-04-30T01:37:34.305Z,69.55
2019-04-30T01:40:10.538Z,71.00
2019-04-30T01:42:35.159Z,66.85
2019-04-30T01:45:04.959Z,69.12
2019-04-30T01:47:34.509Z,70.05
2019-04-30T01:50:05.002Z,66.10
2019-04-30T01:52:52.657Z,67.35
2019-04-30T01:55:29.420Z,66.53
2019-04-30T01:58:09.957Z,68.55
2019-04-30T02:00:53.940Z,70.73
2019-04-30T02:03:23.483Z,71.77
2019-04-30T02:05:53.048Z,71.42
2019-04-30T02:08:22.588Z,72.20
2019-04-30T02:10:52.126Z,73.17
2019-04-30T02:13:21.653Z,71.77
2019-04-30T02:15:51.201Z,73.10
2019-04-30T02:18:20.728Z,73.57
2019-04-30T02:20:51.237Z,72.15
2019-04-30T02:23:20.773Z,73.10
2019-04-30T02:25:50.339Z,69.58
2019-04-30T02:28:19.858Z,74.27
2019-04-30T02:30:50.530Z,70.57
2019-04-30T02:33:20.657Z,73.12
2019-04-30T02:36:03.262Z,73.00
2019-04-30T02:38:31.699Z,71.53
2019-04-30T02:41:01.716Z,72.25
2019-04-30T02:43:33.128Z,71.47
2019-04-30T02:46:04.692Z,70.50
2019-04-30T02:48:39.577Z,69.85
2019-04-30T02:51:10.168Z,72.03
2019-04-30T02:54:23.954Z,72.00
2019-04-30T02:56:56.291Z,73.28
2019-04-30T02:59:25.831Z,73.20
2019-04-30T03:01:55.460Z,75.52
2019-04-30T03:04:24.996Z,74.90
2019-04-30T03:06:54.541Z,73.52
2019-04-30T03:09:24.069Z,74.05
2019-04-30T03:11:53.614Z,73.40
2019-04-30T03:14:23.208Z,72.62
2019-04-30T03:17:21.056Z,68.33
2019-04-30T03:20:10.641Z,70.85
2019-04-30T03:22:40.025Z,72.58
2019-04-30T03:25:09.670Z,71.05
2019-04-30T03:27:42.203Z,71.27
2019-04-30T03:30:11.832Z,68.78
2019-04-30T03:32:43.015Z,70.05
2019-04-30T03:35:13.419Z,70.17
2019-04-30T03:37:44.024Z,68.78
2019-04-30T03:40:13.750Z,66.67
2019-04-30T03:42:43.304Z,66.00
2019-04-30T03:45:12.924Z,65.30
2019-04-30T03:47:43.144Z,64.62
2019-04-30T03:50:13.979Z,67.90
2019-04-30T03:52:43.529Z,63.73
2019-04-30T03:55:13.063Z,64.27
2019-04-30T03:57:42.614Z,67.30
2019-04-30T04:00:14.229Z,64.67
2019-04-30T04:02:49.868Z,63.30
2019-04-30T04:05:29.679Z,63.00
2019-04-30T04:08:13.918Z,61.47
2019-04-30T04:11:01.448Z,65.57
2019-04-30T04:13:33.191Z,63.58
2019-04-30T04:16:03.506Z,62.25
2019-04-30T04:18:33.034Z,63.20
2019-04-30T04:21:11.697Z,60.03
2019-04-30T04:23:33.892Z,62.00
2019-04-30T04:26:03.502Z,63.00
2019-04-30T04:28:33.031Z,62.13
2019-04-30T04:31:02.597Z,61.23
2019-04-30T04:33:32.133Z,62.90
2019-04-30T04:36:01.674Z,64.95
2019-04-30T04:38:31.239Z,61.75
2019-04-30T04:41:03.057Z,63.17
2019-04-30T04:43:32.117Z,60.03
2019-04-30T04:46:01.643Z,58.93
2019-04-30T04:48:32.908Z,57.38
2019-04-30T04:51:02.447Z,57.85
2019-04-30T04:53:31.984Z,57.43
2019-04-30T04:56:01.519Z,53.78
2019-04-30T04:58:31.051Z,57.08
2019-04-30T05:01:00.620Z,55.73
2019-04-30T05:03:33.470Z,54.58
2019-04-30T05:06:03.078Z,56.30
2019-04-30T05:08:32.683Z,54.47
2019-04-30T05:11:02.264Z,56.00
2019-04-30T05:13:34.535Z,55.25
2019-04-30T05:16:03.051Z,54.90
2019-04-30T05:18:32.596Z,54.83
2019-04-30T05:21:02.151Z,54.00
2019-04-30T05:23:31.696Z,56.53
2019-04-30T05:26:01.230Z,57.17
2019-04-30T05:28:30.793Z,57.00
2019-04-30T05:31:00.411Z,57.78
2019-04-30T05:33:29.978Z,56.10
2019-04-30T05:36:00.495Z,55.93
2019-04-30T05:38:31.310Z,57.60
2019-04-30T05:41:00.962Z,56.10
2019-04-30T05:43:30.601Z,57.27
2019-04-30T05:46:00.203Z,59.73
2019-04-30T05:48:29.760Z,57.23
2019-04-30T05:50:59.526Z,55.75
2019-04-30T05:53:29.052Z,54.55
2019-04-30T05:55:59.328Z,53.33
2019-04-30T05:58:29.941Z,57.80
2019-04-30T06:00:59.943Z,60.03
2019-04-30T06:03:32.805Z,64.07
2019-04-30T06:06:00.782Z,60.50
2019-04-30T06:08:39.298Z,59.67
2019-04-30T06:11:12.934Z,56.83
2019-04-30T06:14:13.524Z,53.03
2019-04-30T06:16:44.703Z,54.13
2019-04-30T06:19:14.231Z,54.17
2019-04-30T06:21:44.748Z,53.03
2019-04-30T06:24:14.298Z,55.75
2019-04-30T06:26:43.862Z,53.00
2019-04-30T06:29:13.401Z,54.30
2019-04-30T06:31:43.308Z,54.03
2019-04-30T06:34:13.000Z,54.10
2019-04-30T06:36:50.992Z,52.63
2019-04-30T06:39:14.022Z,55.23
2019-04-30T06:41:44.582Z,54.88
2019-04-30T06:44:14.405Z,54.45
2019-04-30T06:46:44.098Z,52.73
2019-04-30T06:49:14.672Z,55.33
2019-04-30T06:51:44.188Z,61.37
2019-04-30T06:54:13.742Z,63.58
2019-04-30T06:56:43.263Z,64.00
2019-04-30T06:59:12.792Z,67.20
2019-04-30T07:01:42.327Z,61.93
2019-04-30T07:04:11.882Z,62.10
2019-04-30T07:06:45.071Z,63.30
2019-04-30T07:09:26.840Z,64.70
2019-04-30T07:12:27.068Z,55.73
2019-04-30T07:14:50.751Z,54.33
2019-04-30T07:17:20.310Z,54.30
2019-04-30T07:19:55.608Z,53.15
2019-04-30T07:22:36.622Z,53.37
2019-04-30T07:24:52.449Z,55.38
2019-04-30T07:27:24.281Z,58.02
2019-04-30T07:29:53.974Z,56.20
2019-04-30T07:32:23.483Z,58.45
2019-04-30T07:34:53.014Z,56.77
2019-04-30T07:37:24.678Z,57.13
2019-04-30T07:39:53.801Z,56.73
2019-04-30T07:42:23.323Z,54.25
2019-04-30T07:44:52.864Z,57.47
2019-04-30T07:47:22.402Z,42.70
2019-04-30T07:49:55.648Z,48.30
2019-04-30T07:52:23.737Z,55.30
2019-04-30T07:54:53.609Z,50.54
2019-04-30T07:57:23.165Z,52.17
2019-04-30T07:59:53.446Z,49.53
2019-04-30T08:02:22.983Z,47.13
2019-04-30T08:04:59.887Z,43.78
2019-04-30T08:07:30.279Z,45.23
2019-04-30T08:09:59.848Z,43.70
2019-04-30T08:12:34.526Z,46.73
2019-04-30T08:15:00.590Z,53.15
2019-04-30T08:17:30.130Z,49.50
2019-04-30T08:19:59.673Z,47.63
2019-04-30T08:22:29.787Z,56.83
2019-04-30T08:24:59.395Z,52.10
2019-04-30T08:27:29.602Z,48.87
2019-04-30T08:29:59.321Z,47.63
2019-04-30T08:32:29.105Z,53.53
2019-04-30T08:35:00.902Z,51.53
2019-04-30T08:37:29.926Z,52.30
2019-04-30T08:40:00.289Z,57.40
2019-04-30T08:42:34.284Z,50.65
2019-04-30T08:45:03.320Z,51.33
2019-04-30T08:47:32.871Z,51.02
2019-04-30T08:50:03.075Z,51.77
2019-04-30T08:52:33.003Z,49.23
2019-04-30T08:55:13.442Z,45.67
2019-04-30T08:57:33.782Z,47.77
2019-04-30T09:00:03.329Z,44.80
2019-04-30T09:02:32.864Z,44.30
2019-04-30T09:05:06.196Z,49.03
2019-04-30T09:07:35.783Z,42.93
2019-04-30T09:10:05.417Z,42.03
2019-04-30T09:12:34.946Z,39.60
2019-04-30T09:15:04.853Z,38.93
2019-04-30T09:17:34.928Z,42.10
2019-04-30T09:20:04.489Z,43.20
2019-04-30T09:22:34.018Z,48.33
2019-04-30T09:25:03.583Z,51.42
2019-04-30T09:27:33.113Z,48.05
2019-04-30T09:30:02.785Z,51.90
2019-04-30T09:32:33.674Z,53.43
2019-04-30T09:35:03.208Z,56.60
2019-04-30T09:37:32.760Z,57.13
2019-04-30T09:40:02.363Z,57.37
2019-04-30T09:42:33.208Z,53.95
2019-04-30T09:45:02.805Z,55.13
2019-04-30T09:47:32.527Z,58.68
2019-04-30T09:50:02.063Z,63.35
2019-04-30T09:52:31.975Z,57.80
2019-04-30T09:55:02.342Z,63.83
2019-04-30T09:57:32.174Z,63.70
2019-04-30T10:00:01.730Z,62.55
2019-04-30T10:02:32.886Z,68.20
2019-04-30T10:05:02.979Z,64.13
2019-04-30T10:07:32.821Z,64.53
2019-04-30T10:10:02.378Z,62.85
2019-04-30T10:12:31.976Z,59.98
2019-04-30T10:15:01.515Z,59.88
2019-04-30T10:17:35.532Z,58.68
2019-04-30T10:20:07.001Z,57.87
2019-04-30T10:22:39.884Z,63.20
2019-04-30T10:25:09.317Z,61.20
2019-04-30T10:27:38.977Z,58.47
2019-04-30T10:30:09.494Z,56.53
2019-04-30T10:32:40.098Z,55.35
2019-04-30T10:35:09.731Z,49.50
2019-04-30T10:37:39.289Z,47.90
2019-04-30T10:40:10.332Z,47.45
2019-04-30T10:42:40.001Z,47.50
2019-04-30T10:45:10.036Z,43.02
2019-04-30T10:47:39.619Z,43.53
2019-04-30T10:50:09.898Z,44.20
2019-04-30T10:52:39.620Z,43.58
2019-04-30T10:55:09.495Z,41.33
2019-04-30T10:57:39.941Z,41.33
2019-04-30T11:00:12.473Z,40.38
2019-04-30T11:02:42.040Z,38.85
2019-04-30T11:05:12.213Z,38.43
2019-04-30T11:07:41.733Z,38.08
2019-04-30T11:10:11.569Z,38.90
2019-04-30T11:12:41.187Z,38.70
2019-04-30T11:15:10.782Z,38.38
2019-04-30T11:17:40.514Z,38.42
2019-04-30T11:20:10.516Z,38.80
2019-04-30T11:22:40.431Z,38.67
2019-04-30T11:25:10.592Z,38.87
2019-04-30T11:27:41.608Z,37.58
2019-04-30T11:30:20.336Z,37.30
2019-04-30T11:32:43.221Z,37.48
2019-04-30T11:35:13.024Z,37.73
2019-04-30T11:37:42.567Z,38.70
2019-04-30T11:40:14.159Z,39.03
2019-04-30T11:42:43.872Z,36.05
2019-04-30T11:45:19.462Z,34.67
2019-04-30T11:47:53.610Z,34.30
2019-04-30T11:50:20.932Z,35.65
2019-04-30T11:52:50.454Z,34.60
2019-04-30T11:55:20.057Z,34.67
2019-04-30T11:57:49.595Z,34.00
2019-04-30T12:00:25.932Z,34.67
2019-04-30T12:02:55.468Z,34.33
2019-04-30T12:05:25.065Z,37.40
2019-04-30T12:08:26.578Z,35.80
2019-04-30T12:11:06.037Z,35.98
2019-04-30T12:13:35.568Z,33.73
2019-04-30T12:16:05.394Z,33.20
2019-04-30T12:18:35.014Z,32.80
2019-04-30T12:21:08.221Z,30.63
2019-04-30T12:23:37.748Z,30.92
2019-04-30T12:26:09.201Z,30.67
2019-04-30T12:28:40.970Z,27.50
2019-04-30T12:31:10.515Z,27.83
2019-04-30T12:33:40.186Z,29.83
2019-04-30T12:36:09.977Z,29.37
2019-04-30T12:38:39.534Z,26.70
2019-04-30T12:41:09.137Z,24.83
2019-04-30T12:43:38.835Z,26.73
2019-04-30T12:46:08.368Z,27.62
2019-04-30T12:48:57.029Z,22.32
2019-04-30T12:51:45.830Z,20.90
2019-04-30T12:54:24.458Z,20.80
2019-04-30T12:57:06.495Z,21.23
2019-04-30T12:59:36.164Z,21.05
2019-04-30T13:02:05.795Z,19.48
2019-04-30T13:04:35.369Z,19.13
2019-04-30T13:07:05.595Z,18.92
2019-04-30T13:09:36.124Z,19.80
2019-04-30T13:12:06.444Z,19.98
2019-04-30T13:14:50.267Z,19.67
2019-04-30T13:17:07.553Z,18.17
2019-04-30T13:19:37.116Z,18.52
2019-04-30T13:22:06.762Z,18.83
2019-04-30T13:24:39.596Z,19.60
2019-04-30T13:27:09.579Z,19.30
2019-04-30T13:29:50.112Z,19.60
2019-04-30T13:32:29.862Z,18.00
2019-04-30T13:35:00.898Z,19.60
2019-04-30T13:37:40.483Z,18.92
2019-04-30T13:40:20.146Z,20.32
2019-04-30T13:42:50.275Z,19.70
2019-04-30T13:45:20.820Z,19.30
2019-04-30T13:47:50.512Z,19.65
2019-04-30T13:50:21.566Z,18.97
2019-04-30T13:52:51.211Z,19.30
2019-04-30T13:55:22.772Z,19.07
2019-04-30T13:57:52.319Z,19.00
2019-04-30T14:00:25.341Z,17.80
2019-04-30T14:03:14.716Z,18.62
2019-04-30T14:05:44.531Z,19.50
2019-04-30T14:08:20.534Z,18.57
2019-04-30T14:10:50.216Z,20.32
2019-04-30T14:13:20.647Z,20.60
2019-04-30T14:15:50.272Z,21.20
2019-04-30T14:18:28.433Z,20.40
2019-04-30T14:20:51.303Z,20.68
2019-04-30T14:23:20.864Z,21.23
2019-04-30T14:25:56.577Z,21.10
2019-04-30T14:28:21.650Z,20.32
2019-04-30T14:30:51.250Z,18.67
2019-04-30T14:33:25.925Z,19.77
2019-04-30T14:35:52.118Z,21.84
2019-04-30T14:38:21.695Z,25.95
2019-04-30T14:40:52.056Z,25.20
2019-04-30T14:43:32.648Z,23.22
2019-04-30T14:46:30.121Z,22.00
2019-04-30T14:49:21.903Z,22.00
2019-04-30T14:51:51.443Z,22.15
2019-04-30T14:54:27.140Z,23.15
2019-04-30T14:57:03.991Z,21.73
2019-04-30T14:59:59.089Z,22.60
2019-04-30T15:02:36.375Z,22.00
2019-04-30T15:05:08.949Z,23.07
2019-04-30T15:07:39.707Z,23.05
2019-04-30T15:10:09.440Z,22.62
2019-04-30T15:12:39.089Z,22.10
2019-04-30T15:15:09.228Z,22.75
2019-04-30T15:17:41.281Z,21.95
2019-04-30T15:20:11.015Z,20.92
2019-04-30T15:22:44.427Z,21.42
2019-04-30T15:25:14.237Z,22.47
2019-04-30T15:27:47.683Z,22.30
2019-04-30T15:30:21.713Z,21.55
2019-04-30T15:32:49.726Z,20.70
2019-04-30T15:35:19.796Z,22.22
2019-04-30T15:37:51.016Z,22.23
2019-04-30T15:40:20.590Z,22.60
2019-04-30T15:42:51.790Z,23.50
2019-04-30T15:45:22.375Z,24.27
2019-04-30T15:47:51.921Z,24.60
2019-04-30T15:50:21.511Z,25.43
2019-04-30T15:52:51.070Z,26.50
2019-04-30T15:55:20.624Z,26.00
2019-04-30T15:58:18.442Z,24.63
2019-04-30T16:00:49.392Z,25.20
2019-04-30T16:03:23.261Z,27.75
2019-04-30T16:05:53.637Z,25.62
2019-04-30T16:08:41.698Z,25.77
2019-04-30T16:11:30.655Z,26.95
2019-04-30T16:14:09.173Z,26.87
2019-04-30T16:16:40.608Z,26.00
2019-04-30T16:19:10.178Z,26.37
2019-04-30T16:21:39.832Z,25.60
2019-04-30T16:24:09.369Z,25.07
2019-04-30T16:26:49.075Z,25.33
2019-04-30T16:29:11.325Z,24.50
2019-04-30T16:31:42.228Z,23.47
2019-04-30T16:34:11.778Z,23.47
2019-04-30T16:36:41.370Z,23.62
2019-04-30T16:39:10.971Z,24.50
2019-04-30T16:41:40.951Z,23.90
2019-04-30T16:44:10.624Z,24.10
2019-04-30T16:46:40.174Z,23.90
2019-04-30T16:49:11.133Z,24.35
2019-04-30T16:51:40.981Z,24.40
2019-04-30T16:54:30.000Z,25.03
2019-04-30T16:57:04.142Z,23.87
2019-04-30T16:59:36.032Z,24.20
2019-04-30T17:02:05.708Z,24.23
2019-04-30T17:04:44.615Z,25.10
2019-04-30T17:07:50.507Z,23.67
2019-04-30T17:10:39.415Z,24.67
2019-04-30T17:13:24.908Z,23.80
2019-04-30T17:15:57.629Z,24.60
2019-04-30T17:18:27.286Z,24.77
2019-04-30T17:20:58.580Z,24.75
2019-04-30T17:23:29.322Z,23.27
2019-04-30T17:25:59.896Z,21.83
2019-04-30T17:28:30.465Z,22.35
2019-04-30T17:31:00.090Z,22.77
2019-04-30T17:33:30.646Z,21.47
2019-04-30T17:36:00.165Z,22.97
2019-04-30T17:38:29.688Z,21.57
2019-04-30T17:40:59.291Z,22.20
2019-04-30T17:43:28.842Z,23.30
2019-04-30T17:45:58.977Z,21.48
2019-04-30T17:48:29.145Z,21.33
2019-04-30T17:51:00.493Z,20.43
2019-04-30T17:53:31.101Z,22.37
2019-04-30T17:56:00.657Z,22.67
2019-04-30T17:58:30.260Z,23.40
2019-04-30T18:01:01.410Z,24.40
2019-04-30T18:03:31.031Z,22.77
2019-04-30T18:06:01.492Z,24.20
2019-04-30T18:08:31.059Z,22.10
2019-04-30T18:11:00.604Z,24.50
2019-04-30T18:13:30.236Z,22.70
2019-04-30T18:16:00.454Z,24.23
2019-04-30T18:18:39.989Z,23.50
2019-04-30T18:21:32.636Z,24.33
2019-04-30T18:24:21.238Z,23.33
2019-04-30T18:26:56.016Z,20.03
2019-04-30T18:29:25.624Z,22.87
2019-04-30T18:31:55.201Z,21.60
2019-04-30T18:34:24.803Z,21.62
2019-04-30T18:36:54.453Z,22.40
2019-04-30T18:39:24.104Z,22.17
2019-04-30T18:41:53.685Z,20.30
2019-04-30T18:44:23.242Z,21.07
2019-04-30T18:46:52.773Z,20.40
2019-04-30T18:49:22.336Z,20.23
2019-04-30T18:51:51.886Z,20.10
2019-04-30T18:54:21.467Z,20.00
2019-04-30T18:56:51.047Z,19.82
2019-04-30T18:59:20.667Z,18.10
2019-04-30T19:01:50.245Z,20.68
2019-04-30T19:04:19.913Z,19.60
2019-04-30T19:06:51.091Z,17.95
2019-04-30T19:09:40.953Z,18.30
2019-04-30T19:12:29.571Z,18.20
2019-04-30T19:15:16.620Z,18.43
2019-04-30T19:18:03.916Z,17.20
2019-04-30T19:20:53.741Z,16.70
2019-04-30T19:23:23.301Z,15.97
2019-04-30T19:25:52.915Z,16.50
2019-04-30T19:28:22.456Z,14.90
2019-04-30T19:30:57.925Z,14.25
2019-04-30T19:33:23.651Z,13.60
2019-04-30T19:35:53.321Z,14.87
2019-04-30T19:38:22.889Z,15.05
2019-04-30T19:40:52.536Z,15.05
2019-04-30T19:43:22.095Z,15.10
2019-04-30T19:45:51.667Z,14.90
2019-04-30T19:48:21.360Z,16.53
2019-04-30T19:50:50.893Z,16.83
2019-04-30T19:53:22.276Z,17.60
2019-04-30T19:55:51.995Z,18.57
2019-04-30T19:58:29.561Z,18.80
2019-04-30T20:00:52.884Z,20.40
2019-04-30T20:03:22.423Z,20.15
2019-04-30T20:05:52.954Z,18.65
2019-04-30T20:08:22.559Z,18.57
2019-04-30T20:10:52.192Z,18.90
2019-04-30T20:13:31.323Z,18.13
2019-04-30T20:15:53.071Z,17.57
2019-04-30T20:18:22.642Z,17.75
2019-04-30T20:20:54.276Z,18.65
2019-04-30T20:23:23.864Z,16.50
2019-04-30T20:25:53.759Z,17.03
2019-04-30T20:28:23.364Z,17.00
2019-04-30T20:30:52.907Z,17.90
2019-04-30T20:33:22.489Z,18.60
2019-04-30T20:35:52.082Z,18.20
2019-04-30T20:38:39.847Z,19.47
2019-04-30T20:41:10.155Z,19.50
2019-04-30T20:43:39.732Z,19.55
2019-04-30T20:46:10.380Z,20.35
2019-04-30T20:48:41.134Z,19.67
2019-04-30T20:51:11.766Z,19.23
2019-04-30T20:53:41.358Z,19.42
2019-04-30T20:56:11.952Z,19.27
2019-04-30T20:58:54.272Z,19.17
2019-04-30T21:01:12.736Z,19.95
2019-04-30T21:03:42.284Z,20.68
2019-04-30T21:06:11.925Z,20.55
2019-04-30T21:08:41.617Z,21.86
2019-04-30T21:11:11.173Z,21.30
2019-04-30T21:13:41.613Z,21.25
2019-04-30T21:16:11.225Z,20.40
2019-04-30T21:18:40.925Z,19.90
2019-04-30T21:21:10.712Z,21.37
2019-04-30T21:23:40.429Z,22.25
2019-04-30T21:26:10.181Z,23.75
2019-04-30T21:28:39.713Z,26.60
2019-04-30T21:31:37.427Z,27.42
2019-04-30T21:34:17.003Z,27.93
2019-04-30T21:36:46.539Z,30.02
2019-04-30T21:39:16.056Z,30.37
2019-04-30T21:41:45.578Z,30.85
2019-04-30T21:44:15.108Z,31.75
2019-04-30T21:46:44.624Z,32.48
2019-04-30T21:49:14.146Z,32.75
2019-04-30T21:51:43.674Z,34.33
2019-04-30T21:54:13.196Z,35.85
2019-04-30T21:56:42.735Z,35.92
2019-04-30T21:59:23.843Z,36.65
2019-04-30T22:01:43.517Z,38.15
2019-04-30T22:04:13.069Z,38.28
2019-04-30T22:06:42.929Z,38.53
2019-04-30T22:09:13.018Z,39.10
2019-04-30T22:11:44.174Z,40.70
2019-04-30T22:14:13.697Z,39.80
2019-04-30T22:16:44.350Z,40.28
2019-04-30T22:19:13.885Z,39.87
2019-04-30T22:21:43.412Z,41.98
2019-04-30T22:24:12.975Z,41.75
2019-04-30T22:26:42.491Z,41.28
2019-04-30T22:29:12.028Z,42.55
2019-04-30T22:31:41.541Z,42.38
2019-04-30T22:34:11.088Z,43.05
2019-04-30T22:36:44.005Z,42.70
2019-04-30T22:39:35.591Z,44.15
2019-04-30T22:42:39.537Z,42.40
2019-04-30T22:45:16.371Z,44.38
2019-04-30T22:47:45.890Z,41.95
2019-04-30T22:50:15.492Z,42.38
2019-04-30T22:52:45.007Z,42.48
2019-04-30T22:55:14.546Z,41.02
2019-04-30T22:57:44.072Z,41.73
2019-04-30T23:00:18.045Z,42.17
2019-04-30T23:03:03.222Z,43.73
2019-04-30T23:05:32.774Z,45.95
2019-04-30T23:08:02.295Z,44.45
2019-04-30T23:10:31.819Z,44.42
2019-04-30T23:13:01.340Z,44.38
2019-04-30T23:15:30.945Z,45.85
2019-04-30T23:18:00.483Z,44.77
2019-04-30T23:20:30.044Z,45.23
2019-04-30T23:22:59.558Z,44.50
2019-04-30T23:25:29.092Z,45.50
2019-04-30T23:27:58.609Z,44.15
2019-04-30T23:30:28.131Z,45.00
2019-04-30T23:32:57.649Z,46.55
2019-04-30T23:35:27.187Z,46.08
2019-04-30T23:37:57.058Z,47.98
2019-04-30T23:40:33.047Z,47.55
2019-04-30T23:43:02.571Z,49.05
2019-04-30T23:45:32.097Z,48.05
2019-04-30T23:48:01.616Z,47.55
2019-04-30T23:50:31.153Z,45.35
2019-04-30T23:53:01.648Z,46.10
2019-04-30T23:55:31.186Z,45.70
2019-04-30T23:58:00.702Z,48.50
